sensor_id;sensor_type;location;lat;lon;timestamp;temperature;humidity
13052;DHT22;6592;47.484;9.726;2022-12-18T00:00:06;-1.80;99.90
13052;DHT22;6592;47.484;9.726;2022-12-18T00:02:34;-1.70;99.90
13052;DHT22;6592;47.484;9.726;2022-12-18T00:05:03;-1.50;99.90
13052;DHT22;6592;47.484;9.726;2022-12-18T00:07:32;-1.70;99.90
13052;DHT22;6592;47.484;9.726;2022-12-18T00:10:00;-1.40;99.90
13052;DHT22;6592;47.484;9.726;2022-12-18T00:12:30;-1.40;99.90
13052;DHT22;6592;47.484;9.726;2022-12-18T00:14:58;-1.60;99.90
13052;DHT22;6592;47.484;9.726;2022-12-18T00:17:26;-1.60;99.90
13052;DHT22;6592;47.484;9.726;2022-12-18T00:19:54;-1.70;99.90
13052;DHT22;6592;47.484;9.726;2022-12-18T00:22:23;-1.60;99.90
13052;DHT22;6592;47.484;9.726;2022-12-18T00:24:51;-1.60;99.90
13052;DHT22;6592;47.484;9.726;2022-12-18T00:27:19;-1.50;99.90
13052;DHT22;6592;47.484;9.726;2022-12-18T00:29:49;-1.60;99.90
13052;DHT22;6592;47.484;9.726;2022-12-18T00:32:17;-1.50;99.90
13052;DHT22;6592;47.484;9.726;2022-12-18T00:34:46;-1.70;99.90
13052;DHT22;6592;47.484;9.726;2022-12-18T00:37:14;-1.60;99.90
13052;DHT22;6592;47.484;9.726;2022-12-18T00:39:48;-1.60;99.90
13052;DHT22;6592;47.484;9.726;2022-12-18T00:42:16;-1.50;99.90
13052;DHT22;6592;47.484;9.726;2022-12-18T00:45:05;-1.50;99.90
13052;DHT22;6592;47.484;9.726;2022-12-18T00:47:39;-1.60;99.90
13052;DHT22;6592;47.484;9.726;2022-12-18T00:50:08;-1.60;99.90
13052;DHT22;6592;47.484;9.726;2022-12-18T00:52:41;-1.60;99.90
13052;DHT22;6592;47.484;9.726;2022-12-18T00:55:11;-1.60;99.90
13052;DHT22;6592;47.484;9.726;2022-12-18T00:57:40;-0.90;99.90
13052;DHT22;6592;47.484;9.726;2022-12-18T01:00:12;-1.60;99.90
13052;DHT22;6592;47.484;9.726;2022-12-18T01:02:41;-1.60;99.90
13052;DHT22;6592;47.484;9.726;2022-12-18T01:05:11;-1.60;99.90
13052;DHT22;6592;47.484;9.726;2022-12-18T01:07:40;-1.70;99.90
13052;DHT22;6592;47.484;9.726;2022-12-18T01:10:10;-1.70;99.90
13052;DHT22;6592;47.484;9.726;2022-12-18T01:12:39;-1.80;99.90
13052;DHT22;6592;47.484;9.726;2022-12-18T01:15:10;-1.60;99.90
13052;DHT22;6592;47.484;9.726;2022-12-18T01:17:39;-1.80;99.90
13052;DHT22;6592;47.484;9.726;2022-12-18T01:20:09;-1.90;99.90
13052;DHT22;6592;47.484;9.726;2022-12-18T01:22:38;-2.00;99.90
13052;DHT22;6592;47.484;9.726;2022-12-18T01:25:07;-2.10;99.90
13052;DHT22;6592;47.484;9.726;2022-12-18T01:27:35;-2.10;99.90
13052;DHT22;6592;47.484;9.726;2022-12-18T01:30:04;-2.20;99.90
13052;DHT22;6592;47.484;9.726;2022-12-18T01:32:34;-2.30;99.90
13052;DHT22;6592;47.484;9.726;2022-12-18T01:35:03;-2.40;99.90
13052;DHT22;6592;47.484;9.726;2022-12-18T01:37:32;-2.50;99.90
13052;DHT22;6592;47.484;9.726;2022-12-18T01:40:00;-2.50;99.90
13052;DHT22;6592;47.484;9.726;2022-12-18T01:42:28;-2.50;99.90
13052;DHT22;6592;47.484;9.726;2022-12-18T01:45:00;-2.50;99.90
13052;DHT22;6592;47.484;9.726;2022-12-18T01:47:34;-2.60;99.90
13052;DHT22;6592;47.484;9.726;2022-12-18T01:50:07;-2.70;99.90
13052;DHT22;6592;47.484;9.726;2022-12-18T01:52:36;-2.80;99.90
13052;DHT22;6592;47.484;9.726;2022-12-18T01:55:07;-2.00;99.90
13052;DHT22;6592;47.484;9.726;2022-12-18T01:57:37;-2.80;99.90
13052;DHT22;6592;47.484;9.726;2022-12-18T02:00:08;-2.80;99.90
13052;DHT22;6592;47.484;9.726;2022-12-18T02:02:39;-2.80;99.90
13052;DHT22;6592;47.484;9.726;2022-12-18T02:05:09;-2.80;99.90
13052;DHT22;6592;47.484;9.726;2022-12-18T02:07:52;-2.80;99.90
13052;DHT22;6592;47.484;9.726;2022-12-18T02:13:02;-2.90;99.90
13052;DHT22;6592;47.484;9.726;2022-12-18T02:15:38;-3.00;99.90
13052;DHT22;6592;47.484;9.726;2022-12-18T02:18:11;-3.10;99.90
13052;DHT22;6592;47.484;9.726;2022-12-18T02:20:44;-3.10;99.90
13052;DHT22;6592;47.484;9.726;2022-12-18T02:23:29;-3.40;99.90
13052;DHT22;6592;47.484;9.726;2022-12-18T02:26:10;-1.80;99.90
13052;DHT22;6592;47.484;9.726;2022-12-18T02:28:43;-2.60;99.90
13052;DHT22;6592;47.484;9.726;2022-12-18T02:31:16;-2.60;99.90
13052;DHT22;6592;47.484;9.726;2022-12-18T02:33:46;-2.70;99.90
13052;DHT22;6592;47.484;9.726;2022-12-18T02:36:16;-3.10;99.90
13052;DHT22;6592;47.484;9.726;2022-12-18T02:38:46;-2.60;99.90
13052;DHT22;6592;47.484;9.726;2022-12-18T02:41:18;-3.20;99.90
13052;DHT22;6592;47.484;9.726;2022-12-18T02:43:47;-2.00;99.90
13052;DHT22;6592;47.484;9.726;2022-12-18T02:46:32;-2.80;99.90
13052;DHT22;6592;47.484;9.726;2022-12-18T02:49:19;-3.00;99.90
13052;DHT22;6592;47.484;9.726;2022-12-18T02:51:53;-1.50;99.90
13052;DHT22;6592;47.484;9.726;2022-12-18T02:54:32;-1.90;99.90
13052;DHT22;6592;47.484;9.726;2022-12-18T02:57:13;-3.30;99.90
13052;DHT22;6592;47.484;9.726;2022-12-18T02:59:49;-3.90;99.90
13052;DHT22;6592;47.484;9.726;2022-12-18T03:02:24;-2.90;99.90
13052;DHT22;6592;47.484;9.726;2022-12-18T03:05:01;-3.60;99.90
13052;DHT22;6592;47.484;9.726;2022-12-18T03:07:37;-3.40;99.90
13052;DHT22;6592;47.484;9.726;2022-12-18T03:10:08;-3.40;99.90
13052;DHT22;6592;47.484;9.726;2022-12-18T03:12:45;-3.60;99.90
13052;DHT22;6592;47.484;9.726;2022-12-18T03:15:18;-3.60;99.90
13052;DHT22;6592;47.484;9.726;2022-12-18T03:17:52;-3.40;99.90
13052;DHT22;6592;47.484;9.726;2022-12-18T03:20:24;-3.70;99.90
13052;DHT22;6592;47.484;9.726;2022-12-18T03:22:57;-2.30;99.90
13052;DHT22;6592;47.484;9.726;2022-12-18T03:25:28;-3.20;99.90
13052;DHT22;6592;47.484;9.726;2022-12-18T03:28:01;-3.60;99.90
13052;DHT22;6592;47.484;9.726;2022-12-18T03:30:32;-3.50;99.90
13052;DHT22;6592;47.484;9.726;2022-12-18T03:33:05;-3.50;99.90
13052;DHT22;6592;47.484;9.726;2022-12-18T03:35:38;-3.70;99.90
13052;DHT22;6592;47.484;9.726;2022-12-18T03:38:08;-3.60;99.90
13052;DHT22;6592;47.484;9.726;2022-12-18T03:40:46;-3.60;99.90
13052;DHT22;6592;47.484;9.726;2022-12-18T03:43:23;-3.60;99.90
13052;DHT22;6592;47.484;9.726;2022-12-18T03:45:58;-3.80;99.90
13052;DHT22;6592;47.484;9.726;2022-12-18T03:48:32;-3.40;99.90
13052;DHT22;6592;47.484;9.726;2022-12-18T03:51:08;-3.20;99.90
13052;DHT22;6592;47.484;9.726;2022-12-18T03:53:42;-3.60;99.90
13052;DHT22;6592;47.484;9.726;2022-12-18T03:56:14;-3.50;99.90
13052;DHT22;6592;47.484;9.726;2022-12-18T03:58:46;-3.60;99.90
13052;DHT22;6592;47.484;9.726;2022-12-18T04:01:16;-3.50;99.90
13052;DHT22;6592;47.484;9.726;2022-12-18T04:03:47;-3.50;99.90
13052;DHT22;6592;47.484;9.726;2022-12-18T04:06:17;-3.60;99.90
13052;DHT22;6592;47.484;9.726;2022-12-18T04:08:46;-3.60;99.90
13052;DHT22;6592;47.484;9.726;2022-12-18T04:11:15;-3.60;99.90
13052;DHT22;6592;47.484;9.726;2022-12-18T04:13:45;-3.70;99.90
13052;DHT22;6592;47.484;9.726;2022-12-18T04:16:13;-3.60;99.90
13052;DHT22;6592;47.484;9.726;2022-12-18T04:18:42;-3.70;99.90
13052;DHT22;6592;47.484;9.726;2022-12-18T04:21:10;-3.60;99.90
13052;DHT22;6592;47.484;9.726;2022-12-18T04:23:38;-3.60;99.90
13052;DHT22;6592;47.484;9.726;2022-12-18T04:26:07;-3.60;99.90
13052;DHT22;6592;47.484;9.726;2022-12-18T04:28:35;-3.80;99.90
13052;DHT22;6592;47.484;9.726;2022-12-18T04:31:05;-3.70;99.90
13052;DHT22;6592;47.484;9.726;2022-12-18T04:33:33;-3.70;99.90
13052;DHT22;6592;47.484;9.726;2022-12-18T04:36:02;-3.70;99.90
13052;DHT22;6592;47.484;9.726;2022-12-18T04:38:31;-3.80;99.90
13052;DHT22;6592;47.484;9.726;2022-12-18T04:40:59;-3.70;99.90
13052;DHT22;6592;47.484;9.726;2022-12-18T04:43:27;-3.90;99.90
13052;DHT22;6592;47.484;9.726;2022-12-18T04:46:02;-3.60;99.90
13052;DHT22;6592;47.484;9.726;2022-12-18T04:48:32;-4.00;99.90
13052;DHT22;6592;47.484;9.726;2022-12-18T04:51:00;-4.00;99.90
13052;DHT22;6592;47.484;9.726;2022-12-18T04:53:28;-3.80;99.90
13052;DHT22;6592;47.484;9.726;2022-12-18T04:56:05;-4.00;99.90
13052;DHT22;6592;47.484;9.726;2022-12-18T04:58:34;-4.10;99.90
13052;DHT22;6592;47.484;9.726;2022-12-18T05:01:02;-4.00;99.90
13052;DHT22;6592;47.484;9.726;2022-12-18T05:03:32;-4.00;99.90
13052;DHT22;6592;47.484;9.726;2022-12-18T05:06:01;-4.10;99.90
13052;DHT22;6592;47.484;9.726;2022-12-18T05:08:30;-3.40;99.90
13052;DHT22;6592;47.484;9.726;2022-12-18T05:10:59;-4.10;99.90
13052;DHT22;6592;47.484;9.726;2022-12-18T05:13:28;-4.10;99.90
13052;DHT22;6592;47.484;9.726;2022-12-18T05:15:56;-4.00;99.90
13052;DHT22;6592;47.484;9.726;2022-12-18T05:18:25;-4.20;99.90
13052;DHT22;6592;47.484;9.726;2022-12-18T05:20:55;-4.20;99.90
13052;DHT22;6592;47.484;9.726;2022-12-18T05:23:24;-4.10;99.90
13052;DHT22;6592;47.484;9.726;2022-12-18T05:25:53;-4.20;99.90
13052;DHT22;6592;47.484;9.726;2022-12-18T05:28:23;-4.20;99.90
13052;DHT22;6592;47.484;9.726;2022-12-18T05:30:52;-4.30;99.90
13052;DHT22;6592;47.484;9.726;2022-12-18T05:33:22;-4.30;99.90
13052;DHT22;6592;47.484;9.726;2022-12-18T05:35:51;-4.30;99.90
13052;DHT22;6592;47.484;9.726;2022-12-18T05:38:22;-4.30;99.90
13052;DHT22;6592;47.484;9.726;2022-12-18T05:40:52;-4.30;99.90
13052;DHT22;6592;47.484;9.726;2022-12-18T05:43:21;-4.30;99.90
13052;DHT22;6592;47.484;9.726;2022-12-18T05:45:50;-4.30;99.90
13052;DHT22;6592;47.484;9.726;2022-12-18T05:48:19;-4.30;99.90
13052;DHT22;6592;47.484;9.726;2022-12-18T05:50:49;-4.40;99.90
13052;DHT22;6592;47.484;9.726;2022-12-18T05:53:20;-4.40;99.90
13052;DHT22;6592;47.484;9.726;2022-12-18T05:55:49;-3.60;99.90
13052;DHT22;6592;47.484;9.726;2022-12-18T05:58:17;-4.20;99.90
13052;DHT22;6592;47.484;9.726;2022-12-18T06:00:45;-4.40;99.90
13052;DHT22;6592;47.484;9.726;2022-12-18T06:03:14;-4.40;99.90
13052;DHT22;6592;47.484;9.726;2022-12-18T06:05:44;-4.00;99.90
13052;DHT22;6592;47.484;9.726;2022-12-18T06:08:13;-4.40;99.90
13052;DHT22;6592;47.484;9.726;2022-12-18T06:10:50;-4.40;99.90
13052;DHT22;6592;47.484;9.726;2022-12-18T06:13:19;-3.60;99.90
13052;DHT22;6592;47.484;9.726;2022-12-18T06:15:48;-4.50;99.90
13052;DHT22;6592;47.484;9.726;2022-12-18T06:18:16;-4.50;99.90
13052;DHT22;6592;47.484;9.726;2022-12-18T06:20:44;-4.40;99.90
13052;DHT22;6592;47.484;9.726;2022-12-18T06:23:14;-4.50;99.90
13052;DHT22;6592;47.484;9.726;2022-12-18T06:25:43;-4.60;99.90
13052;DHT22;6592;47.484;9.726;2022-12-18T06:28:12;-4.50;99.90
13052;DHT22;6592;47.484;9.726;2022-12-18T06:30:43;-4.50;99.90
13052;DHT22;6592;47.484;9.726;2022-12-18T06:33:12;-4.60;99.90
13052;DHT22;6592;47.484;9.726;2022-12-18T06:35:41;-4.70;99.90
13052;DHT22;6592;47.484;9.726;2022-12-18T06:38:09;-4.70;99.90
13052;DHT22;6592;47.484;9.726;2022-12-18T06:40:38;-4.70;99.90
13052;DHT22;6592;47.484;9.726;2022-12-18T06:43:08;-4.00;99.90
13052;DHT22;6592;47.484;9.726;2022-12-18T06:45:37;-4.70;99.90
13052;DHT22;6592;47.484;9.726;2022-12-18T06:48:05;-5.50;99.90
13052;DHT22;6592;47.484;9.726;2022-12-18T06:50:34;-4.80;99.90
13052;DHT22;6592;47.484;9.726;2022-12-18T06:53:02;-4.80;99.90
13052;DHT22;6592;47.484;9.726;2022-12-18T06:55:32;-5.70;99.90
13052;DHT22;6592;47.484;9.726;2022-12-18T06:58:01;-5.00;99.90
13052;DHT22;6592;47.484;9.726;2022-12-18T07:00:31;-4.80;99.90
13052;DHT22;6592;47.484;9.726;2022-12-18T07:02:59;-3.50;99.90
13052;DHT22;6592;47.484;9.726;2022-12-18T07:05:28;-4.90;99.90
13052;DHT22;6592;47.484;9.726;2022-12-18T07:07:58;-5.00;99.90
13052;DHT22;6592;47.484;9.726;2022-12-18T07:10:27;-5.00;99.90
13052;DHT22;6592;47.484;9.726;2022-12-18T07:12:55;-4.60;99.90
13052;DHT22;6592;47.484;9.726;2022-12-18T07:15:23;-4.90;99.90
13052;DHT22;6592;47.484;9.726;2022-12-18T07:17:53;-5.00;99.90
13052;DHT22;6592;47.484;9.726;2022-12-18T07:20:21;-4.90;99.90
13052;DHT22;6592;47.484;9.726;2022-12-18T07:22:49;-4.90;99.90
13052;DHT22;6592;47.484;9.726;2022-12-18T07:25:22;-4.90;99.90
13052;DHT22;6592;47.484;9.726;2022-12-18T07:27:50;-4.70;99.90
13052;DHT22;6592;47.484;9.726;2022-12-18T07:30:19;-4.60;99.90
13052;DHT22;6592;47.484;9.726;2022-12-18T07:32:47;-4.80;99.90
13052;DHT22;6592;47.484;9.726;2022-12-18T07:35:17;-4.80;99.90
13052;DHT22;6592;47.484;9.726;2022-12-18T07:37:51;-4.80;99.90
13052;DHT22;6592;47.484;9.726;2022-12-18T07:40:19;-4.70;99.90
13052;DHT22;6592;47.484;9.726;2022-12-18T07:42:47;-4.60;99.90
13052;DHT22;6592;47.484;9.726;2022-12-18T07:45:15;-4.70;99.90
13052;DHT22;6592;47.484;9.726;2022-12-18T07:47:44;-4.70;99.90
13052;DHT22;6592;47.484;9.726;2022-12-18T07:50:12;-4.50;99.90
13052;DHT22;6592;47.484;9.726;2022-12-18T07:52:42;-4.70;99.90
13052;DHT22;6592;47.484;9.726;2022-12-18T07:55:10;-4.70;99.90
13052;DHT22;6592;47.484;9.726;2022-12-18T07:57:38;-4.60;99.90
13052;DHT22;6592;47.484;9.726;2022-12-18T08:00:17;-4.30;99.90
13052;DHT22;6592;47.484;9.726;2022-12-18T08:02:47;-4.60;99.90
13052;DHT22;6592;47.484;9.726;2022-12-18T08:05:15;-4.50;99.90
13052;DHT22;6592;47.484;9.726;2022-12-18T08:07:45;-4.50;99.90
13052;DHT22;6592;47.484;9.726;2022-12-18T08:10:13;-4.30;99.90
13052;DHT22;6592;47.484;9.726;2022-12-18T08:12:42;-4.30;99.90
13052;DHT22;6592;47.484;9.726;2022-12-18T08:15:11;-4.30;99.90
13052;DHT22;6592;47.484;9.726;2022-12-18T08:17:39;-4.30;99.90
13052;DHT22;6592;47.484;9.726;2022-12-18T08:20:09;-4.20;99.90
13052;DHT22;6592;47.484;9.726;2022-12-18T08:22:37;-4.20;99.90
13052;DHT22;6592;47.484;9.726;2022-12-18T08:25:07;-4.20;99.90
13052;DHT22;6592;47.484;9.726;2022-12-18T08:27:36;-4.20;99.90
13052;DHT22;6592;47.484;9.726;2022-12-18T08:30:05;-4.10;99.90
13052;DHT22;6592;47.484;9.726;2022-12-18T08:32:34;-4.10;99.90
13052;DHT22;6592;47.484;9.726;2022-12-18T08:35:03;-4.00;99.90
13052;DHT22;6592;47.484;9.726;2022-12-18T08:37:31;-4.00;99.90
13052;DHT22;6592;47.484;9.726;2022-12-18T08:40:00;-3.80;99.90
13052;DHT22;6592;47.484;9.726;2022-12-18T08:42:30;-3.70;99.90
13052;DHT22;6592;47.484;9.726;2022-12-18T08:45:24;-3.10;99.90
13052;DHT22;6592;47.484;9.726;2022-12-18T08:47:53;-3.30;99.90
13052;DHT22;6592;47.484;9.726;2022-12-18T08:50:21;-3.20;99.90
13052;DHT22;6592;47.484;9.726;2022-12-18T08:52:49;-2.50;99.90
13052;DHT22;6592;47.484;9.726;2022-12-18T08:55:18;-2.70;99.90
13052;DHT22;6592;47.484;9.726;2022-12-18T08:57:50;-2.60;99.90
13052;DHT22;6592;47.484;9.726;2022-12-18T09:00:18;-2.40;99.90
13052;DHT22;6592;47.484;9.726;2022-12-18T09:02:46;-2.30;99.90
13052;DHT22;6592;47.484;9.726;2022-12-18T09:05:15;-2.10;99.90
13052;DHT22;6592;47.484;9.726;2022-12-18T09:07:43;-2.00;99.90
13052;DHT22;6592;47.484;9.726;2022-12-18T09:10:12;-1.60;99.90
13052;DHT22;6592;47.484;9.726;2022-12-18T09:12:40;-2.10;99.90
13052;DHT22;6592;47.484;9.726;2022-12-18T09:15:10;-1.90;99.90
13052;DHT22;6592;47.484;9.726;2022-12-18T09:17:38;-1.80;99.90
13052;DHT22;6592;47.484;9.726;2022-12-18T09:20:07;-1.80;99.90
13052;DHT22;6592;47.484;9.726;2022-12-18T09:22:36;-1.70;99.90
13052;DHT22;6592;47.484;9.726;2022-12-18T09:25:06;-1.70;99.90
13052;DHT22;6592;47.484;9.726;2022-12-18T09:27:35;-1.70;99.90
13052;DHT22;6592;47.484;9.726;2022-12-18T09:30:04;-1.20;99.90
13052;DHT22;6592;47.484;9.726;2022-12-18T09:32:34;-1.70;99.90
13052;DHT22;6592;47.484;9.726;2022-12-18T09:35:02;-1.60;99.90
13052;DHT22;6592;47.484;9.726;2022-12-18T09:37:31;-1.60;99.90
13052;DHT22;6592;47.484;9.726;2022-12-18T09:39:59;-1.50;99.90
13052;DHT22;6592;47.484;9.726;2022-12-18T09:42:27;-1.50;99.90
13052;DHT22;6592;47.484;9.726;2022-12-18T09:44:55;-1.40;99.90
13052;DHT22;6592;47.484;9.726;2022-12-18T09:47:27;-1.40;99.90
13052;DHT22;6592;47.484;9.726;2022-12-18T09:50:01;-1.50;99.90
13052;DHT22;6592;47.484;9.726;2022-12-18T09:52:33;-1.40;99.90
13052;DHT22;6592;47.484;9.726;2022-12-18T09:55:08;-1.50;99.90
13052;DHT22;6592;47.484;9.726;2022-12-18T09:57:45;-1.50;99.90
13052;DHT22;6592;47.484;9.726;2022-12-18T10:00:17;-1.30;99.90
13052;DHT22;6592;47.484;9.726;2022-12-18T10:02:47;-1.30;99.90
13052;DHT22;6592;47.484;9.726;2022-12-18T10:05:20;-1.20;99.90
13052;DHT22;6592;47.484;9.726;2022-12-18T10:07:58;-1.00;99.90
13052;DHT22;6592;47.484;9.726;2022-12-18T10:10:37;-0.60;99.90
13052;DHT22;6592;47.484;9.726;2022-12-18T10:13:18;-0.60;99.90
13052;DHT22;6592;47.484;9.726;2022-12-18T10:15:58;-0.40;99.90
13052;DHT22;6592;47.484;9.726;2022-12-18T10:18:50;-0.10;99.90
13052;DHT22;6592;47.484;9.726;2022-12-18T10:21:36;0.10;99.90
13052;DHT22;6592;47.484;9.726;2022-12-18T10:24:15;0.40;99.90
13052;DHT22;6592;47.484;9.726;2022-12-18T10:26:45;0.60;99.90
13052;DHT22;6592;47.484;9.726;2022-12-18T10:29:16;0.90;99.90
13052;DHT22;6592;47.484;9.726;2022-12-18T10:31:44;1.00;99.90
13052;DHT22;6592;47.484;9.726;2022-12-18T10:34:13;1.30;99.90
13052;DHT22;6592;47.484;9.726;2022-12-18T10:36:42;1.60;99.90
13052;DHT22;6592;47.484;9.726;2022-12-18T10:39:15;2.00;99.90
13052;DHT22;6592;47.484;9.726;2022-12-18T10:41:44;2.40;99.90
13052;DHT22;6592;47.484;9.726;2022-12-18T10:44:16;2.90;99.90
13052;DHT22;6592;47.484;9.726;2022-12-18T10:46:46;3.30;99.90
13052;DHT22;6592;47.484;9.726;2022-12-18T10:49:23;3.70;99.90
13052;DHT22;6592;47.484;9.726;2022-12-18T10:52:05;4.10;99.90
13052;DHT22;6592;47.484;9.726;2022-12-18T10:54:34;4.50;99.90
13052;DHT22;6592;47.484;9.726;2022-12-18T10:57:17;5.80;99.90
13052;DHT22;6592;47.484;9.726;2022-12-18T10:59:52;7.80;99.90
13052;DHT22;6592;47.484;9.726;2022-12-18T11:02:34;9.40;99.90
13052;DHT22;6592;47.484;9.726;2022-12-18T11:05:08;11.00;99.90
13052;DHT22;6592;47.484;9.726;2022-12-18T11:07:53;11.70;99.90
13052;DHT22;6592;47.484;9.726;2022-12-18T11:10:25;11.70;99.90
13052;DHT22;6592;47.484;9.726;2022-12-18T11:12:55;12.40;99.50
13052;DHT22;6592;47.484;9.726;2022-12-18T11:15:27;13.00;99.90
13052;DHT22;6592;47.484;9.726;2022-12-18T11:17:57;12.90;96.00
13052;DHT22;6592;47.484;9.726;2022-12-18T11:20:30;13.60;97.30
13052;DHT22;6592;47.484;9.726;2022-12-18T11:23:03;13.70;96.10
13052;DHT22;6592;47.484;9.726;2022-12-18T11:25:33;14.00;95.10
13052;DHT22;6592;47.484;9.726;2022-12-18T11:28:03;14.10;88.50
13052;DHT22;6592;47.484;9.726;2022-12-18T11:30:34;14.00;88.20
13052;DHT22;6592;47.484;9.726;2022-12-18T11:33:05;13.70;91.80
13052;DHT22;6592;47.484;9.726;2022-12-18T11:35:44;14.50;87.40
13052;DHT22;6592;47.484;9.726;2022-12-18T11:38:22;14.90;91.10
13052;DHT22;6592;47.484;9.726;2022-12-18T11:40:56;14.80;84.20
13052;DHT22;6592;47.484;9.726;2022-12-18T11:43:29;14.20;83.50
13052;DHT22;6592;47.484;9.726;2022-12-18T11:46:01;12.80;89.70
13052;DHT22;6592;47.484;9.726;2022-12-18T11:48:33;12.00;92.20
13052;DHT22;6592;47.484;9.726;2022-12-18T11:51:11;11.40;93.20
13052;DHT22;6592;47.484;9.726;2022-12-18T11:53:42;10.40;93.60
13052;DHT22;6592;47.484;9.726;2022-12-18T11:56:26;9.30;95.70
13052;DHT22;6592;47.484;9.726;2022-12-18T11:59:00;8.60;97.10
13052;DHT22;6592;47.484;9.726;2022-12-18T12:01:40;8.00;98.90
13052;DHT22;6592;47.484;9.726;2022-12-18T12:04:40;7.50;99.80
13052;DHT22;6592;47.484;9.726;2022-12-18T12:07:21;7.10;99.90
13052;DHT22;6592;47.484;9.726;2022-12-18T12:09:56;6.80;99.90
13052;DHT22;6592;47.484;9.726;2022-12-18T12:12:33;5.90;99.90
13052;DHT22;6592;47.484;9.726;2022-12-18T12:15:22;5.80;99.90
13052;DHT22;6592;47.484;9.726;2022-12-18T12:17:59;5.70;99.90
13052;DHT22;6592;47.484;9.726;2022-12-18T12:20:44;5.70;99.90
13052;DHT22;6592;47.484;9.726;2022-12-18T12:23:22;5.60;99.90
13052;DHT22;6592;47.484;9.726;2022-12-18T12:25:58;5.60;99.90
13052;DHT22;6592;47.484;9.726;2022-12-18T12:31:30;5.50;99.90
13052;DHT22;6592;47.484;9.726;2022-12-18T12:34:06;5.40;99.90
13052;DHT22;6592;47.484;9.726;2022-12-18T12:36:46;5.20;99.90
13052;DHT22;6592;47.484;9.726;2022-12-18T12:39:20;4.80;99.90
13052;DHT22;6592;47.484;9.726;2022-12-18T12:41:50;4.60;99.90
13052;DHT22;6592;47.484;9.726;2022-12-18T12:44:40;4.20;99.90
13052;DHT22;6592;47.484;9.726;2022-12-18T12:47:16;4.10;99.90
13052;DHT22;6592;47.484;9.726;2022-12-18T12:49:48;4.00;99.90
13052;DHT22;6592;47.484;9.726;2022-12-18T12:52:29;3.90;99.90
13052;DHT22;6592;47.484;9.726;2022-12-18T12:54:59;3.80;99.90
13052;DHT22;6592;47.484;9.726;2022-12-18T12:57:35;3.70;99.90
13052;DHT22;6592;47.484;9.726;2022-12-18T13:00:10;3.60;99.90
13052;DHT22;6592;47.484;9.726;2022-12-18T13:02:44;3.50;99.90
13052;DHT22;6592;47.484;9.726;2022-12-18T13:05:21;3.30;99.90
13052;DHT22;6592;47.484;9.726;2022-12-18T13:08:22;3.20;99.90
13052;DHT22;6592;47.484;9.726;2022-12-18T13:10:53;3.00;99.90
13052;DHT22;6592;47.484;9.726;2022-12-18T13:13:50;2.90;99.90
13052;DHT22;6592;47.484;9.726;2022-12-18T13:16:19;2.80;99.90
13052;DHT22;6592;47.484;9.726;2022-12-18T13:18:51;2.70;99.90
13052;DHT22;6592;47.484;9.726;2022-12-18T13:21:24;2.70;99.90
13052;DHT22;6592;47.484;9.726;2022-12-18T13:23:54;2.60;99.90
13052;DHT22;6592;47.484;9.726;2022-12-18T13:26:30;2.50;99.90
13052;DHT22;6592;47.484;9.726;2022-12-18T13:29:01;2.60;99.90
13052;DHT22;6592;47.484;9.726;2022-12-18T13:32:10;2.60;99.90
13052;DHT22;6592;47.484;9.726;2022-12-18T13:34:48;2.50;99.90
13052;DHT22;6592;47.484;9.726;2022-12-18T13:37:43;2.40;99.90
13052;DHT22;6592;47.484;9.726;2022-12-18T13:43:31;2.40;99.90
13052;DHT22;6592;47.484;9.726;2022-12-18T13:46:17;2.30;99.90
13052;DHT22;6592;47.484;9.726;2022-12-18T13:48:52;2.30;99.90
13052;DHT22;6592;47.484;9.726;2022-12-18T13:51:22;2.30;99.90
13052;DHT22;6592;47.484;9.726;2022-12-18T13:53:53;2.20;99.90
13052;DHT22;6592;47.484;9.726;2022-12-18T13:56:24;2.20;99.90
13052;DHT22;6592;47.484;9.726;2022-12-18T13:59:16;2.20;99.90
13052;DHT22;6592;47.484;9.726;2022-12-18T14:01:52;2.20;99.90
13052;DHT22;6592;47.484;9.726;2022-12-18T14:04:26;2.20;99.90
13052;DHT22;6592;47.484;9.726;2022-12-18T14:06:58;2.10;99.90
13052;DHT22;6592;47.484;9.726;2022-12-18T14:09:29;2.00;99.90
13052;DHT22;6592;47.484;9.726;2022-12-18T14:11:59;2.00;99.90
13052;DHT22;6592;47.484;9.726;2022-12-18T14:14:48;1.90;99.90
13052;DHT22;6592;47.484;9.726;2022-12-18T14:17:22;1.90;99.90
13052;DHT22;6592;47.484;9.726;2022-12-18T14:19:51;1.80;99.90
13052;DHT22;6592;47.484;9.726;2022-12-18T14:22:21;1.70;99.90
13052;DHT22;6592;47.484;9.726;2022-12-18T14:25:13;1.50;99.90
13052;DHT22;6592;47.484;9.726;2022-12-18T14:27:45;1.10;99.90
13052;DHT22;6592;47.484;9.726;2022-12-18T14:30:27;1.00;99.90
13052;DHT22;6592;47.484;9.726;2022-12-18T14:33:05;0.80;99.90
13052;DHT22;6592;47.484;9.726;2022-12-18T14:35:38;0.70;99.90
13052;DHT22;6592;47.484;9.726;2022-12-18T14:38:17;0.60;99.90
13052;DHT22;6592;47.484;9.726;2022-12-18T14:40:47;0.40;99.90
13052;DHT22;6592;47.484;9.726;2022-12-18T14:43:15;0.10;99.90
13052;DHT22;6592;47.484;9.726;2022-12-18T14:45:44;-0.20;99.90
13052;DHT22;6592;47.484;9.726;2022-12-18T14:48:17;-0.20;99.90
13052;DHT22;6592;47.484;9.726;2022-12-18T14:50:57;-0.20;99.90
13052;DHT22;6592;47.484;9.726;2022-12-18T14:53:35;-0.30;99.90
13052;DHT22;6592;47.484;9.726;2022-12-18T14:56:13;-0.40;99.90
13052;DHT22;6592;47.484;9.726;2022-12-18T14:58:49;-0.70;99.90
13052;DHT22;6592;47.484;9.726;2022-12-18T15:01:20;-0.80;99.90
13052;DHT22;6592;47.484;9.726;2022-12-18T15:03:51;-0.90;99.90
13052;DHT22;6592;47.484;9.726;2022-12-18T15:06:32;-0.90;99.90
13052;DHT22;6592;47.484;9.726;2022-12-18T15:09:03;-0.90;99.90
13052;DHT22;6592;47.484;9.726;2022-12-18T15:11:43;-0.90;99.90
13052;DHT22;6592;47.484;9.726;2022-12-18T15:14:22;-0.70;99.90
13052;DHT22;6592;47.484;9.726;2022-12-18T15:16:53;-0.70;99.90
13052;DHT22;6592;47.484;9.726;2022-12-18T15:19:28;-0.70;99.90
13052;DHT22;6592;47.484;9.726;2022-12-18T15:21:56;-0.80;99.90
13052;DHT22;6592;47.484;9.726;2022-12-18T15:24:32;-0.60;99.90
13052;DHT22;6592;47.484;9.726;2022-12-18T15:27:01;-0.80;99.90
13052;DHT22;6592;47.484;9.726;2022-12-18T15:29:29;-0.70;99.90
13052;DHT22;6592;47.484;9.726;2022-12-18T15:32:01;-0.70;99.90
13052;DHT22;6592;47.484;9.726;2022-12-18T15:34:34;-0.70;99.90
13052;DHT22;6592;47.484;9.726;2022-12-18T15:37:02;-0.80;99.90
13052;DHT22;6592;47.484;9.726;2022-12-18T15:39:31;-0.80;99.90
13052;DHT22;6592;47.484;9.726;2022-12-18T15:42:01;-0.70;99.90
13052;DHT22;6592;47.484;9.726;2022-12-18T15:44:47;-0.90;99.90
13052;DHT22;6592;47.484;9.726;2022-12-18T15:47:15;-0.80;99.90
13052;DHT22;6592;47.484;9.726;2022-12-18T15:49:45;-0.80;99.90
13052;DHT22;6592;47.484;9.726;2022-12-18T15:52:13;-0.90;99.90
13052;DHT22;6592;47.484;9.726;2022-12-18T15:54:53;-0.80;99.90
13052;DHT22;6592;47.484;9.726;2022-12-18T15:57:38;-0.80;99.90
13052;DHT22;6592;47.484;9.726;2022-12-18T16:00:12;-0.60;99.90
13052;DHT22;6592;47.484;9.726;2022-12-18T16:02:40;-0.80;99.90
13052;DHT22;6592;47.484;9.726;2022-12-18T16:05:14;-0.80;99.90
13052;DHT22;6592;47.484;9.726;2022-12-18T16:07:43;-0.90;99.90
13052;DHT22;6592;47.484;9.726;2022-12-18T16:10:12;-1.00;99.90
13052;DHT22;6592;47.484;9.726;2022-12-18T16:12:41;-1.10;99.90
13052;DHT22;6592;47.484;9.726;2022-12-18T16:15:10;-1.10;99.90
13052;DHT22;6592;47.484;9.726;2022-12-18T16:17:47;-1.20;99.90
13052;DHT22;6592;47.484;9.726;2022-12-18T16:20:19;-1.20;99.90
13052;DHT22;6592;47.484;9.726;2022-12-18T16:22:49;-1.20;99.90
13052;DHT22;6592;47.484;9.726;2022-12-18T16:25:21;-1.20;99.90
13052;DHT22;6592;47.484;9.726;2022-12-18T16:27:50;-1.30;99.90
13052;DHT22;6592;47.484;9.726;2022-12-18T16:30:20;-1.20;99.90